sensor_id;sensor_type;location;lat;lon;timestamp;temperature;humidity
48162;DHT22;33950;48.154;16.316;2023-11-18T00:01:45;5.10;98.30
48162;DHT22;33950;48.154;16.316;2023-11-18T00:04:10;5.10;98.30
48162;DHT22;33950;48.154;16.316;2023-11-18T00:06:41;5.10;98.20
48162;DHT22;33950;48.154;16.316;2023-11-18T00:09:06;5.10;98.20
48162;DHT22;33950;48.154;16.316;2023-11-18T00:11:33;5.00;98.10
48162;DHT22;33950;48.154;16.316;2023-11-18T00:13:59;5.10;98.30
48162;DHT22;33950;48.154;16.316;2023-11-18T00:16:25;5.10;98.50
48162;DHT22;33950;48.154;16.316;2023-11-18T00:18:52;5.10;98.20
48162;DHT22;33950;48.154;16.316;2023-11-18T00:21:18;5.20;98.40
48162;DHT22;33950;48.154;16.316;2023-11-18T00:23:44;5.20;98.40
48162;DHT22;33950;48.154;16.316;2023-11-18T00:26:10;5.20;98.30
48162;DHT22;33950;48.154;16.316;2023-11-18T00:28:37;5.10;98.20
48162;DHT22;33950;48.154;16.316;2023-11-18T00:31:03;5.20;98.40
48162;DHT22;33950;48.154;16.316;2023-11-18T00:33:30;5.10;98.40
48162;DHT22;33950;48.154;16.316;2023-11-18T00:35:55;5.10;98.70
48162;DHT22;33950;48.154;16.316;2023-11-18T00:38:21;5.00;98.50
48162;DHT22;33950;48.154;16.316;2023-11-18T00:40:46;5.00;98.60
48162;DHT22;33950;48.154;16.316;2023-11-18T00:43:12;5.00;98.60
48162;DHT22;33950;48.154;16.316;2023-11-18T00:45:39;4.90;98.60
48162;DHT22;33950;48.154;16.316;2023-11-18T00:48:06;4.90;98.70
48162;DHT22;33950;48.154;16.316;2023-11-18T00:50:32;4.90;98.70
48162;DHT22;33950;48.154;16.316;2023-11-18T00:52:58;4.90;98.70
48162;DHT22;33950;48.154;16.316;2023-11-18T00:55:24;4.90;98.70
48162;DHT22;33950;48.154;16.316;2023-11-18T00:57:49;4.90;98.70
48162;DHT22;33950;48.154;16.316;2023-11-18T01:00:15;4.90;98.70
48162;DHT22;33950;48.154;16.316;2023-11-18T01:02:48;4.90;98.80
48162;DHT22;33950;48.154;16.316;2023-11-18T01:05:15;4.90;98.80
48162;DHT22;33950;48.154;16.316;2023-11-18T01:07:40;4.90;98.80
48162;DHT22;33950;48.154;16.316;2023-11-18T01:10:06;4.80;98.80
48162;DHT22;33950;48.154;16.316;2023-11-18T01:12:32;4.80;98.90
48162;DHT22;33950;48.154;16.316;2023-11-18T01:14:58;4.80;99.20
48162;DHT22;33950;48.154;16.316;2023-11-18T01:17:23;4.70;99.00
48162;DHT22;33950;48.154;16.316;2023-11-18T01:19:50;4.70;99.10
48162;DHT22;33950;48.154;16.316;2023-11-18T01:22:16;4.70;99.00
48162;DHT22;33950;48.154;16.316;2023-11-18T01:24:43;4.70;99.10
48162;DHT22;33950;48.154;16.316;2023-11-18T01:27:09;4.70;99.10
48162;DHT22;33950;48.154;16.316;2023-11-18T01:29:35;4.60;99.10
48162;DHT22;33950;48.154;16.316;2023-11-18T01:32:00;4.60;99.20
48162;DHT22;33950;48.154;16.316;2023-11-18T01:34:26;4.60;99.10
48162;DHT22;33950;48.154;16.316;2023-11-18T01:36:54;4.50;99.20
48162;DHT22;33950;48.154;16.316;2023-11-18T01:39:20;4.50;99.30
48162;DHT22;33950;48.154;16.316;2023-11-18T01:41:46;4.50;99.40
48162;DHT22;33950;48.154;16.316;2023-11-18T01:44:11;4.40;99.40
48162;DHT22;33950;48.154;16.316;2023-11-18T01:46:40;4.40;99.50
48162;DHT22;33950;48.154;16.316;2023-11-18T01:49:06;4.40;99.50
48162;DHT22;33950;48.154;16.316;2023-11-18T01:51:33;4.40;99.60
48162;DHT22;33950;48.154;16.316;2023-11-18T01:54:02;4.40;99.50
48162;DHT22;33950;48.154;16.316;2023-11-18T01:56:29;4.40;99.40
48162;DHT22;33950;48.154;16.316;2023-11-18T01:58:56;4.40;99.40
48162;DHT22;33950;48.154;16.316;2023-11-18T02:01:24;4.40;99.30
48162;DHT22;33950;48.154;16.316;2023-11-18T02:03:50;4.50;99.40
48162;DHT22;33950;48.154;16.316;2023-11-18T02:06:16;4.50;99.20
48162;DHT22;33950;48.154;16.316;2023-11-18T02:08:41;4.50;99.20
48162;DHT22;33950;48.154;16.316;2023-11-18T02:11:12;4.60;99.30
48162;DHT22;33950;48.154;16.316;2023-11-18T02:13:39;4.70;99.10
48162;DHT22;33950;48.154;16.316;2023-11-18T02:16:06;4.80;99.10
48162;DHT22;33950;48.154;16.316;2023-11-18T02:18:32;4.70;99.00
48162;DHT22;33950;48.154;16.316;2023-11-18T02:20:59;4.70;98.90
48162;DHT22;33950;48.154;16.316;2023-11-18T02:23:24;4.70;98.90
48162;DHT22;33950;48.154;16.316;2023-11-18T02:25:53;4.70;98.90
48162;DHT22;33950;48.154;16.316;2023-11-18T02:28:18;4.60;98.90
48162;DHT22;33950;48.154;16.316;2023-11-18T02:30:45;4.70;98.80
48162;DHT22;33950;48.154;16.316;2023-11-18T02:33:11;4.70;98.80
48162;DHT22;33950;48.154;16.316;2023-11-18T02:35:41;4.60;98.80
48162;DHT22;33950;48.154;16.316;2023-11-18T02:38:13;4.60;98.90
48162;DHT22;33950;48.154;16.316;2023-11-18T02:40:41;4.60;98.90
48162;DHT22;33950;48.154;16.316;2023-11-18T02:43:10;4.60;98.80
48162;DHT22;33950;48.154;16.316;2023-11-18T02:45:36;4.60;98.80
48162;DHT22;33950;48.154;16.316;2023-11-18T02:48:02;4.70;98.80
48162;DHT22;33950;48.154;16.316;2023-11-18T02:50:28;4.80;98.70
48162;DHT22;33950;48.154;16.316;2023-11-18T02:52:54;4.80;98.60
48162;DHT22;33950;48.154;16.316;2023-11-18T02:55:20;4.80;98.50
48162;DHT22;33950;48.154;16.316;2023-11-18T02:57:49;4.80;98.50
48162;DHT22;33950;48.154;16.316;2023-11-18T03:00:18;4.80;98.50
48162;DHT22;33950;48.154;16.316;2023-11-18T03:02:47;4.80;98.40
48162;DHT22;33950;48.154;16.316;2023-11-18T03:05:13;4.80;98.30
48162;DHT22;33950;48.154;16.316;2023-11-18T03:07:39;4.80;98.40
48162;DHT22;33950;48.154;16.316;2023-11-18T03:10:06;4.80;98.50
48162;DHT22;33950;48.154;16.316;2023-11-18T03:12:36;4.80;98.40
48162;DHT22;33950;48.154;16.316;2023-11-18T03:15:03;4.70;98.50
48162;DHT22;33950;48.154;16.316;2023-11-18T03:17:30;4.70;98.50
48162;DHT22;33950;48.154;16.316;2023-11-18T03:19:56;4.70;98.50
48162;DHT22;33950;48.154;16.316;2023-11-18T03:22:22;4.70;98.60
48162;DHT22;33950;48.154;16.316;2023-11-18T03:24:48;4.80;98.60
48162;DHT22;33950;48.154;16.316;2023-11-18T03:27:14;4.80;98.60
48162;DHT22;33950;48.154;16.316;2023-11-18T03:29:40;4.80;98.50
48162;DHT22;33950;48.154;16.316;2023-11-18T03:32:06;4.80;98.60
48162;DHT22;33950;48.154;16.316;2023-11-18T03:34:33;4.70;98.50
48162;DHT22;33950;48.154;16.316;2023-11-18T03:36:59;4.80;98.60
48162;DHT22;33950;48.154;16.316;2023-11-18T03:39:24;4.70;98.50
48162;DHT22;33950;48.154;16.316;2023-11-18T03:41:50;4.70;98.50
48162;DHT22;33950;48.154;16.316;2023-11-18T03:44:16;4.60;98.70
48162;DHT22;33950;48.154;16.316;2023-11-18T03:46:42;4.60;98.70
48162;DHT22;33950;48.154;16.316;2023-11-18T03:49:08;4.70;98.70
48162;DHT22;33950;48.154;16.316;2023-11-18T03:51:35;4.70;98.80
48162;DHT22;33950;48.154;16.316;2023-11-18T03:54:00;4.70;98.90
48162;DHT22;33950;48.154;16.316;2023-11-18T03:56:26;4.60;98.90
48162;DHT22;33950;48.154;16.316;2023-11-18T03:58:52;4.70;98.90
48162;DHT22;33950;48.154;16.316;2023-11-18T04:01:20;4.50;99.20
48162;DHT22;33950;48.154;16.316;2023-11-18T04:03:46;4.40;99.10
48162;DHT22;33950;48.154;16.316;2023-11-18T04:06:11;4.40;99.40
48162;DHT22;33950;48.154;16.316;2023-11-18T04:08:43;4.40;99.60
48162;DHT22;33950;48.154;16.316;2023-11-18T04:11:09;4.30;99.50
48162;DHT22;33950;48.154;16.316;2023-11-18T04:13:34;4.40;99.50
48162;DHT22;33950;48.154;16.316;2023-11-18T04:16:00;4.40;99.60
48162;DHT22;33950;48.154;16.316;2023-11-18T04:18:25;4.50;99.60
48162;DHT22;33950;48.154;16.316;2023-11-18T04:20:52;4.50;99.30
48162;DHT22;33950;48.154;16.316;2023-11-18T04:23:18;4.60;99.40
48162;DHT22;33950;48.154;16.316;2023-11-18T04:25:45;4.70;99.30
48162;DHT22;33950;48.154;16.316;2023-11-18T04:28:10;4.60;99.10
48162;DHT22;33950;48.154;16.316;2023-11-18T04:30:36;4.60;99.10
48162;DHT22;33950;48.154;16.316;2023-11-18T04:33:01;4.60;98.90
48162;DHT22;33950;48.154;16.316;2023-11-18T04:35:27;4.60;98.90
48162;DHT22;33950;48.154;16.316;2023-11-18T04:37:52;4.70;98.80
48162;DHT22;33950;48.154;16.316;2023-11-18T04:40:18;4.70;98.80
48162;DHT22;33950;48.154;16.316;2023-11-18T04:42:45;4.80;98.60
48162;DHT22;33950;48.154;16.316;2023-11-18T04:45:11;4.90;98.50
48162;DHT22;33950;48.154;16.316;2023-11-18T04:47:36;4.90;98.30
48162;DHT22;33950;48.154;16.316;2023-11-18T04:50:03;4.90;98.30
48162;DHT22;33950;48.154;16.316;2023-11-18T04:52:29;4.90;98.20
48162;DHT22;33950;48.154;16.316;2023-11-18T04:54:57;4.90;98.20
48162;DHT22;33950;48.154;16.316;2023-11-18T04:57:24;4.90;98.10
48162;DHT22;33950;48.154;16.316;2023-11-18T04:59:51;5.00;98.00
48162;DHT22;33950;48.154;16.316;2023-11-18T05:02:16;5.00;97.90
48162;DHT22;33950;48.154;16.316;2023-11-18T05:04:42;5.10;97.70
48162;DHT22;33950;48.154;16.316;2023-11-18T05:07:08;5.10;97.60
48162;DHT22;33950;48.154;16.316;2023-11-18T05:09:33;5.10;97.70
48162;DHT22;33950;48.154;16.316;2023-11-18T05:12:00;5.00;97.80
48162;DHT22;33950;48.154;16.316;2023-11-18T05:14:26;5.00;97.80
48162;DHT22;33950;48.154;16.316;2023-11-18T05:16:53;5.10;97.80
48162;DHT22;33950;48.154;16.316;2023-11-18T05:19:19;5.10;97.80
48162;DHT22;33950;48.154;16.316;2023-11-18T05:21:44;5.10;97.90
48162;DHT22;33950;48.154;16.316;2023-11-18T05:24:14;5.10;97.90
48162;DHT22;33950;48.154;16.316;2023-11-18T05:26:40;5.00;97.90
48162;DHT22;33950;48.154;16.316;2023-11-18T05:29:06;4.90;98.10
48162;DHT22;33950;48.154;16.316;2023-11-18T05:31:31;4.90;98.10
48162;DHT22;33950;48.154;16.316;2023-11-18T05:33:59;4.90;98.20
48162;DHT22;33950;48.154;16.316;2023-11-18T05:36:25;4.80;98.30
48162;DHT22;33950;48.154;16.316;2023-11-18T05:38:56;4.90;98.30
48162;DHT22;33950;48.154;16.316;2023-11-18T05:41:21;4.80;98.20
48162;DHT22;33950;48.154;16.316;2023-11-18T05:43:53;4.80;98.40
48162;DHT22;33950;48.154;16.316;2023-11-18T05:46:19;4.80;98.40
48162;DHT22;33950;48.154;16.316;2023-11-18T05:48:49;4.80;98.50
48162;DHT22;33950;48.154;16.316;2023-11-18T05:51:19;4.80;98.50
48162;DHT22;33950;48.154;16.316;2023-11-18T05:53:46;4.90;98.40
48162;DHT22;33950;48.154;16.316;2023-11-18T05:56:12;5.00;98.30
48162;DHT22;33950;48.154;16.316;2023-11-18T05:58:38;5.00;98.30
48162;DHT22;33950;48.154;16.316;2023-11-18T06:01:06;5.10;98.30
48162;DHT22;33950;48.154;16.316;2023-11-18T06:03:36;5.10;98.20
48162;DHT22;33950;48.154;16.316;2023-11-18T06:06:04;5.20;98.10
48162;DHT22;33950;48.154;16.316;2023-11-18T06:08:33;5.20;98.10
48162;DHT22;33950;48.154;16.316;2023-11-18T06:10:59;5.20;98.10
48162;DHT22;33950;48.154;16.316;2023-11-18T06:13:25;5.20;97.90
48162;DHT22;33950;48.154;16.316;2023-11-18T06:15:52;5.20;98.00
48162;DHT22;33950;48.154;16.316;2023-11-18T06:18:18;5.20;98.00
48162;DHT22;33950;48.154;16.316;2023-11-18T06:20:44;5.20;98.00
48162;DHT22;33950;48.154;16.316;2023-11-18T06:23:10;5.20;98.00
48162;DHT22;33950;48.154;16.316;2023-11-18T06:25:37;5.20;98.10
48162;DHT22;33950;48.154;16.316;2023-11-18T06:28:03;5.30;98.20
48162;DHT22;33950;48.154;16.316;2023-11-18T06:30:29;5.30;98.20
48162;DHT22;33950;48.154;16.316;2023-11-18T06:32:55;5.30;98.00
48162;DHT22;33950;48.154;16.316;2023-11-18T06:35:21;5.20;98.00
48162;DHT22;33950;48.154;16.316;2023-11-18T06:37:46;5.20;98.10
48162;DHT22;33950;48.154;16.316;2023-11-18T06:40:12;5.20;98.00
48162;DHT22;33950;48.154;16.316;2023-11-18T06:42:48;5.10;98.10
48162;DHT22;33950;48.154;16.316;2023-11-18T06:45:14;5.00;98.30
48162;DHT22;33950;48.154;16.316;2023-11-18T06:47:43;5.00;98.40
48162;DHT22;33950;48.154;16.316;2023-11-18T06:50:09;5.10;98.30
48162;DHT22;33950;48.154;16.316;2023-11-18T06:52:36;5.10;98.30
48162;DHT22;33950;48.154;16.316;2023-11-18T06:55:02;5.00;98.40
48162;DHT22;33950;48.154;16.316;2023-11-18T06:57:28;5.00;98.50
48162;DHT22;33950;48.154;16.316;2023-11-18T06:59:55;4.90;98.50
48162;DHT22;33950;48.154;16.316;2023-11-18T07:02:21;4.90;98.60
48162;DHT22;33950;48.154;16.316;2023-11-18T07:04:46;4.90;98.50
48162;DHT22;33950;48.154;16.316;2023-11-18T07:07:12;4.90;98.60
48162;DHT22;33950;48.154;16.316;2023-11-18T07:09:38;4.90;98.60
48162;DHT22;33950;48.154;16.316;2023-11-18T07:12:05;5.00;98.60
48162;DHT22;33950;48.154;16.316;2023-11-18T07:14:30;5.00;98.60
48162;DHT22;33950;48.154;16.316;2023-11-18T07:16:57;5.00;98.60
48162;DHT22;33950;48.154;16.316;2023-11-18T07:19:23;5.00;98.40
48162;DHT22;33950;48.154;16.316;2023-11-18T07:21:48;4.90;98.50
48162;DHT22;33950;48.154;16.316;2023-11-18T07:24:20;4.90;98.40
48162;DHT22;33950;48.154;16.316;2023-11-18T07:26:45;5.00;98.40
48162;DHT22;33950;48.154;16.316;2023-11-18T07:29:11;5.00;98.20
48162;DHT22;33950;48.154;16.316;2023-11-18T07:31:36;5.00;98.30
48162;DHT22;33950;48.154;16.316;2023-11-18T07:34:04;5.00;98.30
48162;DHT22;33950;48.154;16.316;2023-11-18T07:36:30;5.00;98.40
48162;DHT22;33950;48.154;16.316;2023-11-18T07:38:56;5.10;98.40
48162;DHT22;33950;48.154;16.316;2023-11-18T07:41:21;5.10;98.10
48162;DHT22;33950;48.154;16.316;2023-11-18T07:43:49;5.10;98.20
48162;DHT22;33950;48.154;16.316;2023-11-18T07:46:15;5.10;98.10
48162;DHT22;33950;48.154;16.316;2023-11-18T07:48:40;5.10;98.20
48162;DHT22;33950;48.154;16.316;2023-11-18T07:51:07;5.20;98.20
48162;DHT22;33950;48.154;16.316;2023-11-18T07:53:33;5.20;98.10
48162;DHT22;33950;48.154;16.316;2023-11-18T07:55:59;5.20;98.10
48162;DHT22;33950;48.154;16.316;2023-11-18T07:58:27;5.30;98.00
48162;DHT22;33950;48.154;16.316;2023-11-18T08:00:53;5.30;98.10
48162;DHT22;33950;48.154;16.316;2023-11-18T08:03:20;5.20;98.10
48162;DHT22;33950;48.154;16.316;2023-11-18T08:05:45;5.20;98.20
48162;DHT22;33950;48.154;16.316;2023-11-18T08:08:12;5.30;98.30
48162;DHT22;33950;48.154;16.316;2023-11-18T08:10:38;5.30;98.30
48162;DHT22;33950;48.154;16.316;2023-11-18T08:13:04;5.20;98.30
48162;DHT22;33950;48.154;16.316;2023-11-18T08:15:30;5.10;98.50
48162;DHT22;33950;48.154;16.316;2023-11-18T08:17:56;5.10;98.70
48162;DHT22;33950;48.154;16.316;2023-11-18T08:20:22;5.20;98.70
48162;DHT22;33950;48.154;16.316;2023-11-18T08:22:50;5.20;98.70
48162;DHT22;33950;48.154;16.316;2023-11-18T08:25:17;5.20;98.60
48162;DHT22;33950;48.154;16.316;2023-11-18T08:27:43;5.20;98.70
48162;DHT22;33950;48.154;16.316;2023-11-18T08:30:09;5.30;98.90
48162;DHT22;33950;48.154;16.316;2023-11-18T08:32:36;5.20;98.70
48162;DHT22;33950;48.154;16.316;2023-11-18T08:35:03;5.20;98.90
48162;DHT22;33950;48.154;16.316;2023-11-18T08:37:29;5.30;98.90
48162;DHT22;33950;48.154;16.316;2023-11-18T08:39:54;5.20;99.10
48162;DHT22;33950;48.154;16.316;2023-11-18T08:42:21;5.20;99.00
48162;DHT22;33950;48.154;16.316;2023-11-18T08:44:47;5.20;99.00
48162;DHT22;33950;48.154;16.316;2023-11-18T08:47:13;5.20;99.00
48162;DHT22;33950;48.154;16.316;2023-11-18T08:49:42;5.30;99.20
48162;DHT22;33950;48.154;16.316;2023-11-18T08:52:07;5.40;99.00
48162;DHT22;33950;48.154;16.316;2023-11-18T08:54:35;5.40;98.90
48162;DHT22;33950;48.154;16.316;2023-11-18T08:57:08;5.30;99.20
48162;DHT22;33950;48.154;16.316;2023-11-18T08:59:50;5.40;99.10
48162;DHT22;33950;48.154;16.316;2023-11-18T09:02:17;5.40;99.10
48162;DHT22;33950;48.154;16.316;2023-11-18T09:04:43;5.30;99.10
48162;DHT22;33950;48.154;16.316;2023-11-18T09:07:08;5.40;99.30
48162;DHT22;33950;48.154;16.316;2023-11-18T09:09:35;5.40;99.20
48162;DHT22;33950;48.154;16.316;2023-11-18T09:12:01;5.50;99.10
48162;DHT22;33950;48.154;16.316;2023-11-18T09:14:28;5.50;98.80
48162;DHT22;33950;48.154;16.316;2023-11-18T09:16:55;5.40;98.80
48162;DHT22;33950;48.154;16.316;2023-11-18T09:19:21;5.50;99.00
48162;DHT22;33950;48.154;16.316;2023-11-18T09:21:47;5.50;99.10
48162;DHT22;33950;48.154;16.316;2023-11-18T09:24:14;5.70;99.00
48162;DHT22;33950;48.154;16.316;2023-11-18T09:26:40;5.80;98.50
48162;DHT22;33950;48.154;16.316;2023-11-18T09:29:06;5.70;98.60
48162;DHT22;33950;48.154;16.316;2023-11-18T09:31:34;5.80;98.70
48162;DHT22;33950;48.154;16.316;2023-11-18T09:34:00;5.90;98.30
48162;DHT22;33950;48.154;16.316;2023-11-18T09:36:26;6.00;98.40
48162;DHT22;33950;48.154;16.316;2023-11-18T09:38:54;6.10;98.20
48162;DHT22;33950;48.154;16.316;2023-11-18T09:41:19;6.10;98.20
48162;DHT22;33950;48.154;16.316;2023-11-18T09:43:49;6.10;98.10
48162;DHT22;33950;48.154;16.316;2023-11-18T09:46:20;6.10;98.00
48162;DHT22;33950;48.154;16.316;2023-11-18T09:48:49;6.10;98.20
48162;DHT22;33950;48.154;16.316;2023-11-18T09:51:28;6.00;98.30
48162;DHT22;33950;48.154;16.316;2023-11-18T09:53:58;5.90;98.50
48162;DHT22;33950;48.154;16.316;2023-11-18T09:56:28;5.90;98.50
48162;DHT22;33950;48.154;16.316;2023-11-18T09:59:05;5.90;98.60
48162;DHT22;33950;48.154;16.316;2023-11-18T10:01:34;5.90;98.60
48162;DHT22;33950;48.154;16.316;2023-11-18T10:04:03;6.00;98.60
48162;DHT22;33950;48.154;16.316;2023-11-18T10:06:33;5.90;98.70
48162;DHT22;33950;48.154;16.316;2023-11-18T10:08:59;6.00;98.60
48162;DHT22;33950;48.154;16.316;2023-11-18T10:11:40;5.90;98.70
48162;DHT22;33950;48.154;16.316;2023-11-18T10:14:06;6.00;98.70
48162;DHT22;33950;48.154;16.316;2023-11-18T10:16:33;6.10;98.80
48162;DHT22;33950;48.154;16.316;2023-11-18T10:18:59;6.10;98.70
48162;DHT22;33950;48.154;16.316;2023-11-18T10:21:35;6.20;98.50
48162;DHT22;33950;48.154;16.316;2023-11-18T10:24:06;6.30;98.00
48162;DHT22;33950;48.154;16.316;2023-11-18T10:26:42;6.50;98.00
48162;DHT22;33950;48.154;16.316;2023-11-18T10:29:09;6.50;97.80
48162;DHT22;33950;48.154;16.316;2023-11-18T10:31:34;6.60;97.80
48162;DHT22;33950;48.154;16.316;2023-11-18T10:34:03;6.60;97.50
48162;DHT22;33950;48.154;16.316;2023-11-18T10:36:29;6.50;97.80
48162;DHT22;33950;48.154;16.316;2023-11-18T10:38:58;6.30;97.70
48162;DHT22;33950;48.154;16.316;2023-11-18T10:41:26;6.20;98.00
48162;DHT22;33950;48.154;16.316;2023-11-18T10:44:04;6.20;98.10
48162;DHT22;33950;48.154;16.316;2023-11-18T10:46:30;6.10;98.40
48162;DHT22;33950;48.154;16.316;2023-11-18T10:48:57;6.10;98.30
48162;DHT22;33950;48.154;16.316;2023-11-18T10:51:23;6.20;98.40
48162;DHT22;33950;48.154;16.316;2023-11-18T10:53:52;6.20;99.60
48162;DHT22;33950;48.154;16.316;2023-11-18T10:56:25;6.30;98.60
48162;DHT22;33950;48.154;16.316;2023-11-18T10:58:55;6.40;98.50
48162;DHT22;33950;48.154;16.316;2023-11-18T11:01:27;6.60;98.10
48162;DHT22;33950;48.154;16.316;2023-11-18T11:03:53;6.60;98.30
48162;DHT22;33950;48.154;16.316;2023-11-18T11:06:21;6.70;97.90
48162;DHT22;33950;48.154;16.316;2023-11-18T11:08:48;6.70;97.90
48162;DHT22;33950;48.154;16.316;2023-11-18T11:11:14;6.80;98.00
48162;DHT22;33950;48.154;16.316;2023-11-18T11:13:43;6.90;97.80
48162;DHT22;33950;48.154;16.316;2023-11-18T11:16:10;6.90;97.80
48162;DHT22;33950;48.154;16.316;2023-11-18T11:18:37;6.80;97.90
48162;DHT22;33950;48.154;16.316;2023-11-18T11:21:12;6.90;97.80
48162;DHT22;33950;48.154;16.316;2023-11-18T11:23:42;7.00;98.00
48162;DHT22;33950;48.154;16.316;2023-11-18T11:26:18;7.10;97.60
48162;DHT22;33950;48.154;16.316;2023-11-18T11:28:58;7.10;97.50
48162;DHT22;33950;48.154;16.316;2023-11-18T11:31:30;7.20;97.60
48162;DHT22;33950;48.154;16.316;2023-11-18T11:33:57;7.20;97.10
48162;DHT22;33950;48.154;16.316;2023-11-18T11:36:25;7.50;97.40
48162;DHT22;33950;48.154;16.316;2023-11-18T11:38:56;8.10;96.40
48162;DHT22;33950;48.154;16.316;2023-11-18T11:41:23;8.30;95.90
48162;DHT22;33950;48.154;16.316;2023-11-18T11:43:52;8.60;95.40
48162;DHT22;33950;48.154;16.316;2023-11-18T11:46:24;9.00;94.80
48162;DHT22;33950;48.154;16.316;2023-11-18T11:48:52;9.00;94.50
48162;DHT22;33950;48.154;16.316;2023-11-18T11:51:22;8.80;94.30
48162;DHT22;33950;48.154;16.316;2023-11-18T11:53:53;8.70;94.60
48162;DHT22;33950;48.154;16.316;2023-11-18T11:56:19;8.90;94.40
48162;DHT22;33950;48.154;16.316;2023-11-18T11:58:46;8.70;94.70
48162;DHT22;33950;48.154;16.316;2023-11-18T12:01:21;8.60;94.90
48162;DHT22;33950;48.154;16.316;2023-11-18T12:03:50;8.40;95.00
48162;DHT22;33950;48.154;16.316;2023-11-18T12:06:22;8.30;95.00
48162;DHT22;33950;48.154;16.316;2023-11-18T12:08:49;8.10;95.00
48162;DHT22;33950;48.154;16.316;2023-11-18T12:11:17;7.80;95.20
48162;DHT22;33950;48.154;16.316;2023-11-18T12:13:54;7.60;95.50
48162;DHT22;33950;48.154;16.316;2023-11-18T12:19:33;7.50;96.00
48162;DHT22;33950;48.154;16.316;2023-11-18T12:22:02;7.50;96.00
48162;DHT22;33950;48.154;16.316;2023-11-18T12:24:38;7.40;96.10
48162;DHT22;33950;48.154;16.316;2023-11-18T12:27:05;7.30;96.30
48162;DHT22;33950;48.154;16.316;2023-11-18T12:29:40;7.20;96.30
48162;DHT22;33950;48.154;16.316;2023-11-18T12:32:06;7.30;96.40
48162;DHT22;33950;48.154;16.316;2023-11-18T12:34:51;7.20;96.40
48162;DHT22;33950;48.154;16.316;2023-11-18T12:37:23;7.20;96.50
48162;DHT22;33950;48.154;16.316;2023-11-18T12:42:50;7.00;96.80
48162;DHT22;33950;48.154;16.316;2023-11-18T12:48:14;6.90;97.20
48162;DHT22;33950;48.154;16.316;2023-11-18T12:50:41;7.00;97.20
48162;DHT22;33950;48.154;16.316;2023-11-18T12:53:09;7.00;97.00
48162;DHT22;33950;48.154;16.316;2023-11-18T12:55:35;7.00;97.20
48162;DHT22;33950;48.154;16.316;2023-11-18T12:58:01;6.90;97.10
48162;DHT22;33950;48.154;16.316;2023-11-18T13:00:27;6.90;97.20
48162;DHT22;33950;48.154;16.316;2023-11-18T13:02:53;6.90;97.30
48162;DHT22;33950;48.154;16.316;2023-11-18T13:05:19;6.90;97.10
48162;DHT22;33950;48.154;16.316;2023-11-18T13:07:46;6.90;97.10
48162;DHT22;33950;48.154;16.316;2023-11-18T13:10:12;6.90;96.80
48162;DHT22;33950;48.154;16.316;2023-11-18T13:12:40;7.00;96.80
48162;DHT22;33950;48.154;16.316;2023-11-18T13:15:08;7.00;96.50
48162;DHT22;33950;48.154;16.316;2023-11-18T13:17:33;7.00;96.40
48162;DHT22;33950;48.154;16.316;2023-11-18T13:20:10;7.00;95.80
48162;DHT22;33950;48.154;16.316;2023-11-18T13:22:38;7.00;95.30
48162;DHT22;33950;48.154;16.316;2023-11-18T13:25:06;7.10;95.30
48162;DHT22;33950;48.154;16.316;2023-11-18T13:27:31;7.00;95.10
48162;DHT22;33950;48.154;16.316;2023-11-18T13:29:58;7.00;94.70
48162;DHT22;33950;48.154;16.316;2023-11-18T13:32:23;7.00;94.70
48162;DHT22;33950;48.154;16.316;2023-11-18T13:34:51;7.00;94.90
48162;DHT22;33950;48.154;16.316;2023-11-18T13:37:17;7.00;94.90
48162;DHT22;33950;48.154;16.316;2023-11-18T13:39:43;7.00;94.70
48162;DHT22;33950;48.154;16.316;2023-11-18T13:42:21;7.00;94.60
48162;DHT22;33950;48.154;16.316;2023-11-18T13:44:48;6.90;94.80
48162;DHT22;33950;48.154;16.316;2023-11-18T13:47:16;6.90;94.80
48162;DHT22;33950;48.154;16.316;2023-11-18T13:49:42;6.90;94.80
48162;DHT22;33950;48.154;16.316;2023-11-18T13:52:08;6.90;94.90
48162;DHT22;33950;48.154;16.316;2023-11-18T13:54:36;6.90;95.10
48162;DHT22;33950;48.154;16.316;2023-11-18T13:57:02;6.90;94.80
48162;DHT22;33950;48.154;16.316;2023-11-18T13:59:30;6.90;94.70
48162;DHT22;33950;48.154;16.316;2023-11-18T14:01:55;6.90;94.90
48162;DHT22;33950;48.154;16.316;2023-11-18T14:04:24;6.90;94.80
48162;DHT22;33950;48.154;16.316;2023-11-18T14:06:50;6.90;95.00
48162;DHT22;33950;48.154;16.316;2023-11-18T14:09:17;6.90;94.80
48162;DHT22;33950;48.154;16.316;2023-11-18T14:11:46;6.90;94.90
48162;DHT22;33950;48.154;16.316;2023-11-18T14:14:12;6.90;95.00
48162;DHT22;33950;48.154;16.316;2023-11-18T14:16:39;6.90;94.90
48162;DHT22;33950;48.154;16.316;2023-11-18T14:19:05;6.90;95.00
48162;DHT22;33950;48.154;16.316;2023-11-18T14:21:31;6.90;94.60
48162;DHT22;33950;48.154;16.316;2023-11-18T14:23:57;6.90;94.60
48162;DHT22;33950;48.154;16.316;2023-11-18T14:26:25;6.90;94.60
48162;DHT22;33950;48.154;16.316;2023-11-18T14:28:52;6.90;94.50
48162;DHT22;33950;48.154;16.316;2023-11-18T14:31:18;6.90;94.50
48162;DHT22;33950;48.154;16.316;2023-11-18T14:33:45;6.90;94.30
48162;DHT22;33950;48.154;16.316;2023-11-18T14:36:11;6.90;94.30
48162;DHT22;33950;48.154;16.316;2023-11-18T14:38:36;6.90;93.90
48162;DHT22;33950;48.154;16.316;2023-11-18T14:41:02;7.00;94.10
48162;DHT22;33950;48.154;16.316;2023-11-18T14:43:28;7.00;93.80
48162;DHT22;33950;48.154;16.316;2023-11-18T14:45:55;7.00;93.60
48162;DHT22;33950;48.154;16.316;2023-11-18T14:48:20;7.00;93.20
48162;DHT22;33950;48.154;16.316;2023-11-18T14:50:48;6.90;93.10
48162;DHT22;33950;48.154;16.316;2023-11-18T14:53:14;6.90;93.00
48162;DHT22;33950;48.154;16.316;2023-11-18T14:55:39;6.90;93.10
48162;DHT22;33950;48.154;16.316;2023-11-18T14:58:05;6.80;92.90
48162;DHT22;33950;48.154;16.316;2023-11-18T15:00:32;6.90;93.00
48162;DHT22;33950;48.154;16.316;2023-11-18T15:02:59;6.80;93.00
48162;DHT22;33950;48.154;16.316;2023-11-18T15:05:25;6.80;92.90
48162;DHT22;33950;48.154;16.316;2023-11-18T15:07:52;6.90;93.00
48162;DHT22;33950;48.154;16.316;2023-11-18T15:10:18;6.80;92.70
48162;DHT22;33950;48.154;16.316;2023-11-18T15:12:47;6.80;92.60
48162;DHT22;33950;48.154;16.316;2023-11-18T15:15:13;6.70;92.70
48162;DHT22;33950;48.154;16.316;2023-11-18T15:17:46;6.70;92.60
48162;DHT22;33950;48.154;16.316;2023-11-18T15:20:12;6.60;92.30
48162;DHT22;33950;48.154;16.316;2023-11-18T15:22:41;6.60;92.00
48162;DHT22;33950;48.154;16.316;2023-11-18T15:25:09;6.50;92.00
48162;DHT22;33950;48.154;16.316;2023-11-18T15:27:37;6.40;91.80
48162;DHT22;33950;48.154;16.316;2023-11-18T15:30:03;6.40;91.60
48162;DHT22;33950;48.154;16.316;2023-11-18T15:32:30;6.30;91.60
48162;DHT22;33950;48.154;16.316;2023-11-18T15:34:56;6.30;91.60
48162;DHT22;33950;48.154;16.316;2023-11-18T15:37:23;6.30;91.50
48162;DHT22;33950;48.154;16.316;2023-11-18T15:39:48;6.30;91.60